sensor_id;sensor_type;location;lat;lon;timestamp;pressure;altitude;pressure_sealevel;temperature
22322;BMP180;11328;53.928;18.522;2022-09-02T00:01:45;101078.00;;;12.00
22322;BMP180;11328;53.928;18.522;2022-09-02T00:04:22;101066.00;;;12.00
22322;BMP180;11328;53.928;18.522;2022-09-02T00:06:52;101083.00;;;12.00
22322;BMP180;11328;53.928;18.522;2022-09-02T00:09:23;101079.00;;;11.90
22322;BMP180;11328;53.928;18.522;2022-09-02T00:11:53;101070.00;;;11.90
22322;BMP180;11328;53.928;18.522;2022-09-02T00:14:32;101067.00;;;11.80
22322;BMP180;11328;53.928;18.522;2022-09-02T00:17:00;101073.00;;;11.80
22322;BMP180;11328;53.928;18.522;2022-09-02T00:19:29;101065.00;;;11.60
22322;BMP180;11328;53.928;18.522;2022-09-02T00:21:58;101067.00;;;11.50
22322;BMP180;11328;53.928;18.522;2022-09-02T00:24:25;101063.00;;;11.40
22322;BMP180;11328;53.928;18.522;2022-09-02T00:26:53;101063.00;;;11.40
22322;BMP180;11328;53.928;18.522;2022-09-02T00:29:24;101060.00;;;11.60
22322;BMP180;11328;53.928;18.522;2022-09-02T00:31:53;101072.00;;;11.60
22322;BMP180;11328;53.928;18.522;2022-09-02T00:34:21;101062.00;;;11.70
22322;BMP180;11328;53.928;18.522;2022-09-02T00:36:48;101052.00;;;11.80
22322;BMP180;11328;53.928;18.522;2022-09-02T00:39:15;101065.00;;;11.90
22322;BMP180;11328;53.928;18.522;2022-09-02T00:41:44;101065.00;;;12.10
22322;BMP180;11328;53.928;18.522;2022-09-02T00:44:15;101066.00;;;12.10
22322;BMP180;11328;53.928;18.522;2022-09-02T00:46:44;101072.00;;;11.90
22322;BMP180;11328;53.928;18.522;2022-09-02T00:49:29;101057.00;;;11.80
22322;BMP180;11328;53.928;18.522;2022-09-02T00:54:46;101058.00;;;11.60
22322;BMP180;11328;53.928;18.522;2022-09-02T00:57:18;101058.00;;;11.60
22322;BMP180;11328;53.928;18.522;2022-09-02T00:59:56;101060.00;;;11.50
22322;BMP180;11328;53.928;18.522;2022-09-02T01:02:24;101056.00;;;11.40
22322;BMP180;11328;53.928;18.522;2022-09-02T01:04:54;101054.00;;;11.40
22322;BMP180;11328;53.928;18.522;2022-09-02T01:07:26;101036.00;;;11.40
22322;BMP180;11328;53.928;18.522;2022-09-02T01:09:55;101052.00;;;11.40
22322;BMP180;11328;53.928;18.522;2022-09-02T01:12:23;101049.00;;;11.50
22322;BMP180;11328;53.928;18.522;2022-09-02T01:14:53;101053.00;;;11.60
22322;BMP180;11328;53.928;18.522;2022-09-02T01:17:20;101044.00;;;11.60
22322;BMP180;11328;53.928;18.522;2022-09-02T01:19:54;101055.00;;;11.60
22322;BMP180;11328;53.928;18.522;2022-09-02T01:22:30;101060.00;;;11.80
22322;BMP180;11328;53.928;18.522;2022-09-02T01:25:05;101057.00;;;11.90
22322;BMP180;11328;53.928;18.522;2022-09-02T01:27:33;101046.00;;;12.00
22322;BMP180;11328;53.928;18.522;2022-09-02T01:30:00;101052.00;;;12.00
22322;BMP180;11328;53.928;18.522;2022-09-02T01:32:29;101061.00;;;12.10
22322;BMP180;11328;53.928;18.522;2022-09-02T01:34:56;101057.00;;;12.10
22322;BMP180;11328;53.928;18.522;2022-09-02T01:37:24;101057.00;;;11.90
22322;BMP180;11328;53.928;18.522;2022-09-02T01:39:52;101033.00;;;11.80
22322;BMP180;11328;53.928;18.522;2022-09-02T01:42:20;101053.00;;;11.70
22322;BMP180;11328;53.928;18.522;2022-09-02T01:44:47;101051.00;;;11.50
22322;BMP180;11328;53.928;18.522;2022-09-02T01:47:19;101048.00;;;11.40
22322;BMP180;11328;53.928;18.522;2022-09-02T01:49:48;101048.00;;;11.30
22322;BMP180;11328;53.928;18.522;2022-09-02T01:52:17;101055.00;;;11.30
22322;BMP180;11328;53.928;18.522;2022-09-02T01:54:44;101051.00;;;11.30
22322;BMP180;11328;53.928;18.522;2022-09-02T01:57:12;101040.00;;;11.30
22322;BMP180;11328;53.928;18.522;2022-09-02T01:59:40;101051.00;;;11.30
22322;BMP180;11328;53.928;18.522;2022-09-02T02:02:07;101054.00;;;11.30
22322;BMP180;11328;53.928;18.522;2022-09-02T02:04:37;101053.00;;;11.30
22322;BMP180;11328;53.928;18.522;2022-09-02T02:07:05;101056.00;;;11.30
22322;BMP180;11328;53.928;18.522;2022-09-02T02:09:32;101051.00;;;11.30
22322;BMP180;11328;53.928;18.522;2022-09-02T02:11:59;101057.00;;;11.10
22322;BMP180;11328;53.928;18.522;2022-09-02T02:14:26;101057.00;;;11.10
22322;BMP180;11328;53.928;18.522;2022-09-02T02:16:53;101064.00;;;11.00
22322;BMP180;11328;53.928;18.522;2022-09-02T02:19:20;101042.00;;;11.00
22322;BMP180;11328;53.928;18.522;2022-09-02T02:21:47;101059.00;;;11.00
22322;BMP180;11328;53.928;18.522;2022-09-02T02:24:14;101059.00;;;11.00
22322;BMP180;11328;53.928;18.522;2022-09-02T02:26:41;101045.00;;;11.00
22322;BMP180;11328;53.928;18.522;2022-09-02T02:29:09;101061.00;;;11.00
22322;BMP180;11328;53.928;18.522;2022-09-02T02:31:36;101055.00;;;11.00
22322;BMP180;11328;53.928;18.522;2022-09-02T02:34:04;101071.00;;;11.10
22322;BMP180;11328;53.928;18.522;2022-09-02T02:36:31;101045.00;;;11.10
22322;BMP180;11328;53.928;18.522;2022-09-02T02:38:58;101060.00;;;11.20
22322;BMP180;11328;53.928;18.522;2022-09-02T02:41:29;101060.00;;;11.40
22322;BMP180;11328;53.928;18.522;2022-09-02T02:43:57;101062.00;;;11.60
22322;BMP180;11328;53.928;18.522;2022-09-02T02:46:24;101067.00;;;11.60
22322;BMP180;11328;53.928;18.522;2022-09-02T02:48:52;101046.00;;;11.80
22322;BMP180;11328;53.928;18.522;2022-09-02T02:51:19;101056.00;;;11.90
22322;BMP180;11328;53.928;18.522;2022-09-02T02:53:46;101078.00;;;12.30
22322;BMP180;11328;53.928;18.522;2022-09-02T02:56:13;101079.00;;;12.60
22322;BMP180;11328;53.928;18.522;2022-09-02T02:58:40;101072.00;;;12.70
22322;BMP180;11328;53.928;18.522;2022-09-02T03:01:07;101099.00;;;12.80
22322;BMP180;11328;53.928;18.522;2022-09-02T03:03:34;101093.00;;;12.90
22322;BMP180;11328;53.928;18.522;2022-09-02T03:06:01;101090.00;;;12.90
22322;BMP180;11328;53.928;18.522;2022-09-02T03:08:28;101104.00;;;13.00
22322;BMP180;11328;53.928;18.522;2022-09-02T03:10:55;101096.00;;;13.10
22322;BMP180;11328;53.928;18.522;2022-09-02T03:13:25;101091.00;;;13.00
22322;BMP180;11328;53.928;18.522;2022-09-02T03:15:55;101084.00;;;12.90
22322;BMP180;11328;53.928;18.522;2022-09-02T03:18:22;101090.00;;;12.90
22322;BMP180;11328;53.928;18.522;2022-09-02T03:20:49;101095.00;;;12.70
22322;BMP180;11328;53.928;18.522;2022-09-02T03:23:16;101072.00;;;12.70
22322;BMP180;11328;53.928;18.522;2022-09-02T03:25:45;101100.00;;;12.60
22322;BMP180;11328;53.928;18.522;2022-09-02T03:28:12;101090.00;;;12.50
22322;BMP180;11328;53.928;18.522;2022-09-02T03:30:40;101085.00;;;12.40
22322;BMP180;11328;53.928;18.522;2022-09-02T03:33:08;101085.00;;;12.20
22322;BMP180;11328;53.928;18.522;2022-09-02T03:35:40;101067.00;;;12.00
22322;BMP180;11328;53.928;18.522;2022-09-02T03:38:09;101077.00;;;11.90
22322;BMP180;11328;53.928;18.522;2022-09-02T03:40:38;101088.00;;;11.80
22322;BMP180;11328;53.928;18.522;2022-09-02T03:43:05;101080.00;;;11.90
22322;BMP180;11328;53.928;18.522;2022-09-02T03:45:32;101086.00;;;12.00
22322;BMP180;11328;53.928;18.522;2022-09-02T03:47:59;101084.00;;;12.00
22322;BMP180;11328;53.928;18.522;2022-09-02T03:50:31;101060.00;;;11.80
22322;BMP180;11328;53.928;18.522;2022-09-02T03:52:59;101088.00;;;11.90
22322;BMP180;11328;53.928;18.522;2022-09-02T03:55:27;101078.00;;;11.80
22322;BMP180;11328;53.928;18.522;2022-09-02T03:57:54;101079.00;;;11.70
22322;BMP180;11328;53.928;18.522;2022-09-02T04:00:24;101089.00;;;11.70
22322;BMP180;11328;53.928;18.522;2022-09-02T04:02:54;101088.00;;;11.50
22322;BMP180;11328;53.928;18.522;2022-09-02T04:05:23;101082.00;;;11.40
22322;BMP180;11328;53.928;18.522;2022-09-02T04:07:50;101084.00;;;11.40
22322;BMP180;11328;53.928;18.522;2022-09-02T04:10:19;101088.00;;;11.40
22322;BMP180;11328;53.928;18.522;2022-09-02T04:12:49;101092.00;;;11.40
22322;BMP180;11328;53.928;18.522;2022-09-02T04:15:17;101090.00;;;11.30
22322;BMP180;11328;53.928;18.522;2022-09-02T04:17:46;101092.00;;;11.30
22322;BMP180;11328;53.928;18.522;2022-09-02T04:20:13;101092.00;;;11.30
22322;BMP180;11328;53.928;18.522;2022-09-02T04:22:40;101057.00;;;11.30
22322;BMP180;11328;53.928;18.522;2022-09-02T04:25:08;101094.00;;;11.30
22322;BMP180;11328;53.928;18.522;2022-09-02T04:27:36;101096.00;;;11.30
22322;BMP180;11328;53.928;18.522;2022-09-02T04:30:05;101091.00;;;11.30
22322;BMP180;11328;53.928;18.522;2022-09-02T04:32:34;101094.00;;;11.30
22322;BMP180;11328;53.928;18.522;2022-09-02T04:35:06;101088.00;;;11.30
22322;BMP180;11328;53.928;18.522;2022-09-02T04:37:33;101084.00;;;11.20
22322;BMP180;11328;53.928;18.522;2022-09-02T04:40:01;101089.00;;;11.20
22322;BMP180;11328;53.928;18.522;2022-09-02T04:42:28;101075.00;;;11.20
22322;BMP180;11328;53.928;18.522;2022-09-02T04:44:55;101083.00;;;11.10
22322;BMP180;11328;53.928;18.522;2022-09-02T04:47:23;101078.00;;;11.10
22322;BMP180;11328;53.928;18.522;2022-09-02T04:49:52;101085.00;;;11.10
22322;BMP180;11328;53.928;18.522;2022-09-02T04:52:19;101084.00;;;11.20
22322;BMP180;11328;53.928;18.522;2022-09-02T04:54:47;101083.00;;;11.20
22322;BMP180;11328;53.928;18.522;2022-09-02T04:57:17;101081.00;;;11.20
22322;BMP180;11328;53.928;18.522;2022-09-02T04:59:44;101093.00;;;11.40
22322;BMP180;11328;53.928;18.522;2022-09-02T05:02:12;101085.00;;;11.40
22322;BMP180;11328;53.928;18.522;2022-09-02T05:04:39;101086.00;;;11.40
22322;BMP180;11328;53.928;18.522;2022-09-02T05:07:06;101072.00;;;11.30
22322;BMP180;11328;53.928;18.522;2022-09-02T05:09:33;101083.00;;;11.40
22322;BMP180;11328;53.928;18.522;2022-09-02T05:12:01;101086.00;;;11.50
22322;BMP180;11328;53.928;18.522;2022-09-02T05:14:30;101083.00;;;11.60
22322;BMP180;11328;53.928;18.522;2022-09-02T05:16:58;101062.00;;;11.60
22322;BMP180;11328;53.928;18.522;2022-09-02T05:19:33;101086.00;;;11.70
22322;BMP180;11328;53.928;18.522;2022-09-02T05:22:00;101080.00;;;11.70
22322;BMP180;11328;53.928;18.522;2022-09-02T05:24:27;101080.00;;;11.80
22322;BMP180;11328;53.928;18.522;2022-09-02T05:26:55;101068.00;;;11.90
22322;BMP180;11328;53.928;18.522;2022-09-02T05:29:22;101072.00;;;12.00
22322;BMP180;11328;53.928;18.522;2022-09-02T05:31:49;101063.00;;;12.10
22322;BMP180;11328;53.928;18.522;2022-09-02T05:34:17;101064.00;;;12.40
22322;BMP180;11328;53.928;18.522;2022-09-02T05:36:45;101082.00;;;12.70
22322;BMP180;11328;53.928;18.522;2022-09-02T05:39:12;101079.00;;;12.90
22322;BMP180;11328;53.928;18.522;2022-09-02T05:41:39;101073.00;;;13.00
22322;BMP180;11328;53.928;18.522;2022-09-02T05:44:06;101087.00;;;13.30
22322;BMP180;11328;53.928;18.522;2022-09-02T05:46:35;101091.00;;;13.50
22322;BMP180;11328;53.928;18.522;2022-09-02T05:49:03;101085.00;;;13.90
22322;BMP180;11328;53.928;18.522;2022-09-02T05:51:47;101099.00;;;14.20
22322;BMP180;11328;53.928;18.522;2022-09-02T05:54:22;101096.00;;;14.50
22322;BMP180;11328;53.928;18.522;2022-09-02T05:56:57;101099.00;;;14.80
22322;BMP180;11328;53.928;18.522;2022-09-02T05:59:26;101092.00;;;15.20
22322;BMP180;11328;53.928;18.522;2022-09-02T06:01:58;101104.00;;;15.50
22322;BMP180;11328;53.928;18.522;2022-09-02T06:04:25;101111.00;;;15.80
22322;BMP180;11328;53.928;18.522;2022-09-02T06:06:54;101113.00;;;16.00
22322;BMP180;11328;53.928;18.522;2022-09-02T06:09:23;101109.00;;;16.20
22322;BMP180;11328;53.928;18.522;2022-09-02T06:11:50;101118.00;;;16.30
22322;BMP180;11328;53.928;18.522;2022-09-02T06:14:21;101120.00;;;16.50
22322;BMP180;11328;53.928;18.522;2022-09-02T06:16:50;101116.00;;;16.60
22322;BMP180;11328;53.928;18.522;2022-09-02T06:19:17;101109.00;;;16.70
22322;BMP180;11328;53.928;18.522;2022-09-02T06:21:47;101110.00;;;16.90
22322;BMP180;11328;53.928;18.522;2022-09-02T06:24:15;101120.00;;;17.10
22322;BMP180;11328;53.928;18.522;2022-09-02T06:26:42;101118.00;;;17.50
22322;BMP180;11328;53.928;18.522;2022-09-02T06:29:10;101123.00;;;17.80
22322;BMP180;11328;53.928;18.522;2022-09-02T06:31:41;101115.00;;;18.00
22322;BMP180;11328;53.928;18.522;2022-09-02T06:34:09;101117.00;;;18.00
22322;BMP180;11328;53.928;18.522;2022-09-02T06:36:44;101124.00;;;18.40
22322;BMP180;11328;53.928;18.522;2022-09-02T06:39:18;101119.00;;;18.60
22322;BMP180;11328;53.928;18.522;2022-09-02T06:41:46;101122.00;;;18.60
22322;BMP180;11328;53.928;18.522;2022-09-02T06:44:17;101124.00;;;19.00
22322;BMP180;11328;53.928;18.522;2022-09-02T06:46:52;101127.00;;;19.20
22322;BMP180;11328;53.928;18.522;2022-09-02T06:49:34;101123.00;;;19.70
22322;BMP180;11328;53.928;18.522;2022-09-02T06:52:02;101125.00;;;20.10
22322;BMP180;11328;53.928;18.522;2022-09-02T06:54:31;101118.00;;;20.60
22322;BMP180;11328;53.928;18.522;2022-09-02T06:56:58;101124.00;;;21.20
22322;BMP180;11328;53.928;18.522;2022-09-02T06:59:25;101124.00;;;21.30
22322;BMP180;11328;53.928;18.522;2022-09-02T07:01:52;101124.00;;;21.50
22322;BMP180;11328;53.928;18.522;2022-09-02T07:04:20;101124.00;;;21.90
22322;BMP180;11328;53.928;18.522;2022-09-02T07:07:07;101120.00;;;22.20
22322;BMP180;11328;53.928;18.522;2022-09-02T07:09:35;101128.00;;;22.30
22322;BMP180;11328;53.928;18.522;2022-09-02T07:12:03;101121.00;;;22.40
22322;BMP180;11328;53.928;18.522;2022-09-02T07:14:37;101121.00;;;22.60
22322;BMP180;11328;53.928;18.522;2022-09-02T07:17:10;101127.00;;;22.70
22322;BMP180;11328;53.928;18.522;2022-09-02T07:19:37;101135.00;;;22.80
22322;BMP180;11328;53.928;18.522;2022-09-02T07:22:05;101135.00;;;23.10
22322;BMP180;11328;53.928;18.522;2022-09-02T07:24:33;101132.00;;;23.30
22322;BMP180;11328;53.928;18.522;2022-09-02T07:27:00;101130.00;;;23.30
22322;BMP180;11328;53.928;18.522;2022-09-02T07:29:28;101118.00;;;23.40
22322;BMP180;11328;53.928;18.522;2022-09-02T07:31:54;101117.00;;;23.60
22322;BMP180;11328;53.928;18.522;2022-09-02T07:34:21;101117.00;;;23.50
22322;BMP180;11328;53.928;18.522;2022-09-02T07:36:49;101123.00;;;23.70
22322;BMP180;11328;53.928;18.522;2022-09-02T07:39:18;101121.00;;;23.60
22322;BMP180;11328;53.928;18.522;2022-09-02T07:41:50;101129.00;;;23.70
22322;BMP180;11328;53.928;18.522;2022-09-02T07:44:19;101132.00;;;23.60
22322;BMP180;11328;53.928;18.522;2022-09-02T07:46:47;101106.00;;;23.30
22322;BMP180;11328;53.928;18.522;2022-09-02T07:49:14;101130.00;;;23.30
22322;BMP180;11328;53.928;18.522;2022-09-02T07:51:48;101135.00;;;23.60
22322;BMP180;11328;53.928;18.522;2022-09-02T07:54:20;101133.00;;;23.90
22322;BMP180;11328;53.928;18.522;2022-09-02T07:56:48;101125.00;;;23.90
22322;BMP180;11328;53.928;18.522;2022-09-02T07:59:16;101126.00;;;24.10
22322;BMP180;11328;53.928;18.522;2022-09-02T08:01:44;101122.00;;;24.20
22322;BMP180;11328;53.928;18.522;2022-09-02T08:04:11;101144.00;;;24.30
22322;BMP180;11328;53.928;18.522;2022-09-02T08:06:39;101131.00;;;24.50
22322;BMP180;11328;53.928;18.522;2022-09-02T08:09:09;101133.00;;;24.60
22322;BMP180;11328;53.928;18.522;2022-09-02T08:11:44;101134.00;;;24.20
22322;BMP180;11328;53.928;18.522;2022-09-02T08:14:21;101122.00;;;24.60
22322;BMP180;11328;53.928;18.522;2022-09-02T08:16:52;101126.00;;;24.70
22322;BMP180;11328;53.928;18.522;2022-09-02T08:19:21;101122.00;;;23.80
22322;BMP180;11328;53.928;18.522;2022-09-02T08:21:48;101129.00;;;23.90
22322;BMP180;11328;53.928;18.522;2022-09-02T08:24:15;101118.00;;;23.40
22322;BMP180;11328;53.928;18.522;2022-09-02T08:26:42;101146.00;;;23.50
22322;BMP180;11328;53.928;18.522;2022-09-02T08:29:09;101127.00;;;23.20
22322;BMP180;11328;53.928;18.522;2022-09-02T08:31:38;101124.00;;;23.60
22322;BMP180;11328;53.928;18.522;2022-09-02T08:34:05;101129.00;;;24.10
22322;BMP180;11328;53.928;18.522;2022-09-02T08:36:32;101122.00;;;24.50
22322;BMP180;11328;53.928;18.522;2022-09-02T08:39:03;101134.00;;;24.80
22322;BMP180;11328;53.928;18.522;2022-09-02T08:41:49;101133.00;;;25.00
22322;BMP180;11328;53.928;18.522;2022-09-02T08:44:21;101143.00;;;24.90
22322;BMP180;11328;53.928;18.522;2022-09-02T08:46:55;101140.00;;;23.80
22322;BMP180;11328;53.928;18.522;2022-09-02T08:49:48;101156.00;;;23.20
22322;BMP180;11328;53.928;18.522;2022-09-02T08:52:56;101134.00;;;23.30
22322;BMP180;11328;53.928;18.522;2022-09-02T08:55:46;101149.00;;;24.00
22322;BMP180;11328;53.928;18.522;2022-09-02T08:58:17;101129.00;;;24.10
22322;BMP180;11328;53.928;18.522;2022-09-02T09:00:59;101126.00;;;24.50
22322;BMP180;11328;53.928;18.522;2022-09-02T09:09:54;101145.00;;;23.60
22322;BMP180;11328;53.928;18.522;2022-09-02T09:17:55;101151.00;;;22.40
22322;BMP180;11328;53.928;18.522;2022-09-02T09:20:48;101157.00;;;22.50
22322;BMP180;11328;53.928;18.522;2022-09-02T09:23:37;101160.00;;;22.30
22322;BMP180;11328;53.928;18.522;2022-09-02T09:26:15;101156.00;;;22.20
22322;BMP180;11328;53.928;18.522;2022-09-02T09:28:47;101162.00;;;22.00
22322;BMP180;11328;53.928;18.522;2022-09-02T09:31:19;101159.00;;;22.00
22322;BMP180;11328;53.928;18.522;2022-09-02T09:34:13;101166.00;;;21.80
22322;BMP180;11328;53.928;18.522;2022-09-02T09:39:26;101172.00;;;21.50
22322;BMP180;11328;53.928;18.522;2022-09-02T09:42:00;101169.00;;;21.40
22322;BMP180;11328;53.928;18.522;2022-09-02T09:47:16;101177.00;;;20.90
22322;BMP180;11328;53.928;18.522;2022-09-02T09:52:32;101175.00;;;20.20
22322;BMP180;11328;53.928;18.522;2022-09-02T09:55:20;101178.00;;;20.10
22322;BMP180;11328;53.928;18.522;2022-09-02T09:57:52;101174.00;;;19.70
22322;BMP180;11328;53.928;18.522;2022-09-02T10:00:33;101179.00;;;19.60
22322;BMP180;11328;53.928;18.522;2022-09-02T10:03:05;101189.00;;;19.70
22322;BMP180;11328;53.928;18.522;2022-09-02T10:05:37;101188.00;;;19.90
22322;BMP180;11328;53.928;18.522;2022-09-02T10:08:25;101185.00;;;20.00
22322;BMP180;11328;53.928;18.522;2022-09-02T10:11:03;101185.00;;;19.80
22322;BMP180;11328;53.928;18.522;2022-09-02T10:13:34;101196.00;;;19.80
22322;BMP180;11328;53.928;18.522;2022-09-02T10:22:50;101183.00;;;20.00
22322;BMP180;11328;53.928;18.522;2022-09-02T10:25:54;101187.00;;;19.90
22322;BMP180;11328;53.928;18.522;2022-09-02T10:28:59;101189.00;;;19.50
22322;BMP180;11328;53.928;18.522;2022-09-02T10:35:08;101184.00;;;19.90
22322;BMP180;11328;53.928;18.522;2022-09-02T10:47:02;101181.00;;;20.00
22322;BMP180;11328;53.928;18.522;2022-09-02T10:49:57;101191.00;;;19.90
22322;BMP180;11328;53.928;18.522;2022-09-02T10:58:00;101179.00;;;20.60
22322;BMP180;11328;53.928;18.522;2022-09-02T11:00:31;101181.00;;;20.70
22322;BMP180;11328;53.928;18.522;2022-09-02T11:08:35;101176.00;;;20.50
22322;BMP180;11328;53.928;18.522;2022-09-02T11:11:12;101175.00;;;20.40
22322;BMP180;11328;53.928;18.522;2022-09-02T11:14:12;101169.00;;;20.50
22322;BMP180;11328;53.928;18.522;2022-09-02T11:19:50;101166.00;;;20.80
22322;BMP180;11328;53.928;18.522;2022-09-02T11:22:29;101162.00;;;21.20
22322;BMP180;11328;53.928;18.522;2022-09-02T11:25:29;101165.00;;;21.30
22322;BMP180;11328;53.928;18.522;2022-09-02T11:33:55;101157.00;;;21.40
22322;BMP180;11328;53.928;18.522;2022-09-02T11:36:25;101152.00;;;21.30
22322;BMP180;11328;53.928;18.522;2022-09-02T11:39:07;101150.00;;;21.50
22322;BMP180;11328;53.928;18.522;2022-09-02T11:48:09;101136.00;;;22.00
22322;BMP180;11328;53.928;18.522;2022-09-02T11:53:40;101129.00;;;21.90
22322;BMP180;11328;53.928;18.522;2022-09-02T11:56:35;101124.00;;;21.80
22322;BMP180;11328;53.928;18.522;2022-09-02T11:59:06;101130.00;;;21.90
22322;BMP180;11328;53.928;18.522;2022-09-02T12:01:38;101110.00;;;21.60
22322;BMP180;11328;53.928;18.522;2022-09-02T12:09:52;101114.00;;;21.90
22322;BMP180;11328;53.928;18.522;2022-09-02T12:23:09;101106.00;;;22.60
22322;BMP180;11328;53.928;18.522;2022-09-02T12:25:59;101107.00;;;22.40
22322;BMP180;11328;53.928;18.522;2022-09-02T12:28:29;101084.00;;;22.40
22322;BMP180;11328;53.928;18.522;2022-09-02T12:33:46;101094.00;;;22.60
22322;BMP180;11328;53.928;18.522;2022-09-02T12:45:14;101093.00;;;22.80
22322;BMP180;11328;53.928;18.522;2022-09-02T12:48:14;101084.00;;;22.80
22322;BMP180;11328;53.928;18.522;2022-09-02T12:50:57;101082.00;;;22.70
22322;BMP180;11328;53.928;18.522;2022-09-02T12:53:45;101079.00;;;22.40
22322;BMP180;11328;53.928;18.522;2022-09-02T12:58:50;101088.00;;;22.30
22322;BMP180;11328;53.928;18.522;2022-09-02T13:01:56;101068.00;;;22.60
22322;BMP180;11328;53.928;18.522;2022-09-02T13:08:40;101081.00;;;22.70
22322;BMP180;11328;53.928;18.522;2022-09-02T13:24:05;101096.00;;;22.10
22322;BMP180;11328;53.928;18.522;2022-09-02T13:32:29;101075.00;;;21.80
22322;BMP180;11328;53.928;18.522;2022-09-02T13:35:02;101076.00;;;21.90
22322;BMP180;11328;53.928;18.522;2022-09-02T13:37:41;101078.00;;;21.90
22322;BMP180;11328;53.928;18.522;2022-09-02T13:40:34;101063.00;;;22.00
22322;BMP180;11328;53.928;18.522;2022-09-02T13:45:40;101067.00;;;22.40
22322;BMP180;11328;53.928;18.522;2022-09-02T13:48:33;101066.00;;;22.70
22322;BMP180;11328;53.928;18.522;2022-09-02T13:51:12;101056.00;;;22.70
22322;BMP180;11328;53.928;18.522;2022-09-02T13:53:45;101055.00;;;22.50
22322;BMP180;11328;53.928;18.522;2022-09-02T13:56:33;101059.00;;;22.70
22322;BMP180;11328;53.928;18.522;2022-09-02T13:59:01;101060.00;;;22.80
22322;BMP180;11328;53.928;18.522;2022-09-02T14:01:38;101040.00;;;22.50
22322;BMP180;11328;53.928;18.522;2022-09-02T14:04:13;101057.00;;;22.40
22322;BMP180;11328;53.928;18.522;2022-09-02T14:06:45;101052.00;;;22.10
22322;BMP180;11328;53.928;18.522;2022-09-02T14:09:23;101066.00;;;22.00
22322;BMP180;11328;53.928;18.522;2022-09-02T14:11:52;101069.00;;;21.90
22322;BMP180;11328;53.928;18.522;2022-09-02T14:14:22;101066.00;;;22.00
22322;BMP180;11328;53.928;18.522;2022-09-02T14:16:50;101060.00;;;22.00
22322;BMP180;11328;53.928;18.522;2022-09-02T14:21:55;101058.00;;;21.80
22322;BMP180;11328;53.928;18.522;2022-09-02T14:24:29;101059.00;;;21.80
22322;BMP180;11328;53.928;18.522;2022-09-02T14:27:02;101055.00;;;22.10
22322;BMP180;11328;53.928;18.522;2022-09-02T14:29:43;101053.00;;;22.40
22322;BMP180;11328;53.928;18.522;2022-09-02T14:32:25;101056.00;;;22.20
22322;BMP180;11328;53.928;18.522;2022-09-02T14:35:11;101070.00;;;22.30
22322;BMP180;11328;53.928;18.522;2022-09-02T14:37:55;101067.00;;;22.20
22322;BMP180;11328;53.928;18.522;2022-09-02T14:40:39;101069.00;;;22.00
22322;BMP180;11328;53.928;18.522;2022-09-02T14:43:13;101068.00;;;21.90
22322;BMP180;11328;53.928;18.522;2022-09-02T14:45:47;101063.00;;;22.00
22322;BMP180;11328;53.928;18.522;2022-09-02T14:48:20;101054.00;;;21.80
22322;BMP180;11328;53.928;18.522;2022-09-02T14:50:48;101067.00;;;21.80
22322;BMP180;11328;53.928;18.522;2022-09-02T14:53:21;101062.00;;;22.00
22322;BMP180;11328;53.928;18.522;2022-09-02T14:55:54;101056.00;;;22.10
22322;BMP180;11328;53.928;18.522;2022-09-02T14:58:25;101065.00;;;22.10
22322;BMP180;11328;53.928;18.522;2022-09-02T15:00:59;101068.00;;;21.90
22322;BMP180;11328;53.928;18.522;2022-09-02T15:03:29;101066.00;;;21.80
22322;BMP180;11328;53.928;18.522;2022-09-02T15:05:56;101068.00;;;21.50
22322;BMP180;11328;53.928;18.522;2022-09-02T15:08:24;101064.00;;;21.30
22322;BMP180;11328;53.928;18.522;2022-09-02T15:10:53;101062.00;;;21.30
22322;BMP180;11328;53.928;18.522;2022-09-02T15:13:31;101061.00;;;21.20
22322;BMP180;11328;53.928;18.522;2022-09-02T15:16:00;101065.00;;;21.20
22322;BMP180;11328;53.928;18.522;2022-09-02T15:18:28;101058.00;;;21.20
22322;BMP180;11328;53.928;18.522;2022-09-02T15:20:55;101059.00;;;21.20
22322;BMP180;11328;53.928;18.522;2022-09-02T15:23:23;101063.00;;;21.10
22322;BMP180;11328;53.928;18.522;2022-09-02T15:25:52;101066.00;;;21.00
22322;BMP180;11328;53.928;18.522;2022-09-02T15:28:20;101071.00;;;20.90
22322;BMP180;11328;53.928;18.522;2022-09-02T15:30:47;101064.00;;;20.90
22322;BMP180;11328;53.928;18.522;2022-09-02T15:33:14;101060.00;;;20.80
22322;BMP180;11328;53.928;18.522;2022-09-02T15:35:43;101060.00;;;20.80
22322;BMP180;11328;53.928;18.522;2022-09-02T15:38:13;101068.00;;;21.00
22322;BMP180;11328;53.928;18.522;2022-09-02T15:40:40;101067.00;;;21.00
22322;BMP180;11328;53.928;18.522;2022-09-02T15:43:07;101067.00;;;21.00
22322;BMP180;11328;53.928;18.522;2022-09-02T15:45:43;101069.00;;;21.00
22322;BMP180;11328;53.928;18.522;2022-09-02T15:48:11;101059.00;;;21.00
22322;BMP180;11328;53.928;18.522;2022-09-02T15:50:38;101066.00;;;21.00
22322;BMP180;11328;53.928;18.522;2022-09-02T15:53:06;101061.00;;;20.90
22322;BMP180;11328;53.928;18.522;2022-09-02T15:55:33;101064.00;;;20.90
22322;BMP180;11328;53.928;18.522;2022-09-02T15:58:00;101070.00;;;20.90
22322;BMP180;11328;53.928;18.522;2022-09-02T16:00:27;101073.00;;;20.80
22322;BMP180;11328;53.928;18.522;2022-09-02T16:02:58;101078.00;;;20.90
22322;BMP180;11328;53.928;18.522;2022-09-02T16:05:26;101075.00;;;20.90
22322;BMP180;11328;53.928;18.522;2022-09-02T16:07:53;101070.00;;;20.80
22322;BMP180;11328;53.928;18.522;2022-09-02T16:10:21;101078.00;;;20.90
22322;BMP180;11328;53.928;18.522;2022-09-02T16:12:47;101084.00;;;20.90
22322;BMP180;11328;53.928;18.522;2022-09-02T16:15:15;101090.00;;;20.90
22322;BMP180;11328;53.928;18.522;2022-09-02T16:17:41;101080.00;;;20.90
22322;BMP180;11328;53.928;18.522;2022-09-02T16:20:09;101086.00;;;21.00